Time,TemperatureF,DewpointF,PressureIn,WindDirection,WindDirectionDegrees,WindSpeedMPH,WindSpeedGustMPH,Humidity,HourlyPrecipIn,Conditions,Clouds,dailyrainin,SoftwareType,DateUTC
2013-10-27 00:00:00,48.3,35.5,29.88,West,269,0.0,5.0,61,0.00,,,0.00,Wunderground v.1.15,2013-10-27 04:00:00,
2013-10-27 00:01:00,48.2,35.4,29.88,West,269,0.0,0.0,61,0.00,,,0.00,Wunderground v.1.15,2013-10-27 04:01:00,
2013-10-27 00:05:00,48.1,35.3,29.88,West,267,0.0,0.0,61,0.00,,,0.00,Wunderground v.1.15,2013-10-27 04:05:00,
2013-10-27 00:07:00,48.1,35.3,29.88,West,271,0.0,0.0,61,0.00,,,0.00,Wunderground v.1.15,2013-10-27 04:07:00,
2013-10-27 00:08:00,48.1,35.3,29.88,West,267,0.0,1.0,61,0.00,,,0.00,Wunderground v.1.15,2013-10-27 04:08:00,
2013-10-27 00:11:00,48.0,35.6,29.88,WSW,250,0.0,0.0,62,0.00,,,0.00,Wunderground v.1.15,2013-10-27 04:11:00,
2013-10-27 00:16:00,48.0,35.6,29.88,WSW,257,1.0,4.0,62,0.00,,,0.00,Wunderground v.1.15,2013-10-27 04:16:00,
2013-10-27 00:21:00,47.9,35.9,29.88,West,265,1.0,1.0,63,0.00,,,0.00,Wunderground v.1.15,2013-10-27 04:21:00,
2013-10-27 00:26:00,47.8,36.6,29.88,WSW,257,0.0,1.0,65,0.00,,,0.00,Wunderground v.1.15,2013-10-27 04:26:00,
2013-10-27 00:31:00,47.7,37.3,29.88,WSW,257,0.0,0.0,67,0.00,,,0.00,Wunderground v.1.15,2013-10-27 04:31:00,
2013-10-27 00:36:00,47.4,37.7,29.88,WSW,257,0.0,6.0,69,0.00,,,0.00,Wunderground v.1.15,2013-10-27 04:36:00,
2013-10-27 00:41:00,47.1,37.4,29.88,WSW,250,1.0,6.0,69,0.00,,,0.00,Wunderground v.1.15,2013-10-27 04:41:00,
2013-10-27 00:47:00,47.0,37.0,29.87,WSW,246,2.0,6.0,68,0.00,,,0.00,Wunderground v.1.15,2013-10-27 04:47:00,
2013-10-27 00:52:00,46.9,36.9,29.87,WSW,257,2.0,6.0,68,0.00,,,0.00,Wunderground v.1.15,2013-10-27 04:52:00,
2013-10-27 00:57:00,46.9,36.9,29.87,WNW,302,2.0,6.0,68,0.00,,,0.00,Wunderground v.1.15,2013-10-27 04:57:00,
2013-10-27 01:03:00,47.1,35.9,29.88,SW,233,2.0,5.0,65,0.00,,,0.00,Wunderground v.1.15,2013-10-27 05:03:00,
2013-10-27 01:08:00,47.3,35.7,29.87,WSW,246,3.0,5.0,64,0.00,,,0.00,Wunderground v.1.15,2013-10-27 05:08:00,
2013-10-27 01:13:00,47.4,35.4,29.87,WSW,242,3.0,3.0,63,0.00,,,0.00,Wunderground v.1.15,2013-10-27 05:13:00,
2013-10-27 01:18:00,47.6,35.6,29.86,West,273,2.0,5.0,63,0.00,,,0.00,Wunderground v.1.15,2013-10-27 05:18:00,
2013-10-27 01:24:00,47.6,35.2,29.86,West,265,2.0,4.0,62,0.00,,,0.00,Wunderground v.1.15,2013-10-27 05:24:00,
2013-10-27 01:29:00,47.6,35.6,29.86,SSW,213,2.0,4.0,63,0.00,,,0.00,Wunderground v.1.15,2013-10-27 05:29:00,
2013-10-27 01:34:00,47.6,35.2,29.86,WSW,242,2.0,4.0,62,0.00,,,0.00,Wunderground v.1.15,2013-10-27 05:34:00,
2013-10-27 01:39:00,47.6,35.6,29.86,SSW,194,2.0,4.0,63,0.00,,,0.00,Wunderground v.1.15,2013-10-27 05:39:00,
2013-10-27 01:44:00,47.6,35.2,29.86,SSE,152,1.0,4.0,62,0.00,,,0.00,Wunderground v.1.15,2013-10-27 05:44:00,
2013-10-27 01:49:00,47.6,35.2,29.86,West,277,2.0,4.0,62,0.00,,,0.00,Wunderground v.1.15,2013-10-27 05:49:00,
2013-10-27 01:55:00,47.7,35.3,29.86,WSW,238,2.0,4.0,62,0.00,,,0.00,Wunderground v.1.15,2013-10-27 05:55:00,
2013-10-27 02:00:00,47.7,35.3,29.85,SW,223,2.0,2.0,62,0.00,,,0.00,Wunderground v.1.15,2013-10-27 06:00:00,
2013-10-27 02:06:00,47.7,35.3,29.85,South,178,1.0,6.0,62,0.00,,,0.00,Wunderground v.1.15,2013-10-27 06:06:00,
2013-10-27 02:11:00,47.7,35.3,29.85,SW,225,1.0,3.0,62,0.00,,,0.00,Wunderground v.1.15,2013-10-27 06:11:00,
2013-10-27 02:16:00,47.6,35.6,29.85,West,267,1.0,3.0,63,0.00,,,0.00,Wunderground v.1.15,2013-10-27 06:16:00,
2013-10-27 02:21:00,47.6,35.6,29.85,SSW,202,1.0,1.0,63,0.00,,,0.00,Wunderground v.1.15,2013-10-27 06:21:00,
2013-10-27 02:26:00,47.5,35.5,29.85,WSW,240,0.0,2.0,63,0.00,,,0.00,Wunderground v.1.15,2013-10-27 06:26:00,
2013-10-27 02:31:00,47.4,35.4,29.85,West,265,1.0,10.0,63,0.00,,,0.00,Wunderground v.1.15,2013-10-27 06:31:00,
2013-10-27 02:36:00,47.4,35.4,29.86,West,263,1.0,10.0,63,0.00,,,0.00,Wunderground v.1.15,2013-10-27 06:36:00,
2013-10-27 02:42:00,47.3,35.3,29.86,WNW,286,2.0,10.0,63,0.00,,,0.00,Wunderground v.1.15,2013-10-27 06:42:00,
2013-10-27 02:47:00,47.3,36.1,29.86,West,271,3.0,10.0,65,0.00,,,0.00,Wunderground v.1.15,2013-10-27 06:47:00,
2013-10-27 02:52:00,47.1,37.1,29.86,SW,232,4.0,10.0,68,0.00,,,0.00,Wunderground v.1.15,2013-10-27 06:52:00,
2013-10-27 02:57:00,46.7,37.4,29.86,WSW,244,4.0,10.0,70,0.00,,,0.00,Wunderground v.1.15,2013-10-27 06:57:00,
2013-10-27 03:03:00,46.1,38.6,29.86,WSW,257,3.0,3.0,75,0.00,,,0.00,Wunderground v.1.15,2013-10-27 07:03:00,
2013-10-27 03:08:00,45.7,38.9,29.85,South,184,1.0,4.0,77,0.00,,,0.00,Wunderground v.1.15,2013-10-27 07:08:00,
2013-10-27 03:14:00,45.2,38.4,29.85,SW,216,2.0,2.0,77,0.00,,,0.01,Wunderground v.1.15,2013-10-27 07:14:00,
2013-10-27 03:20:00,44.8,38.7,29.85,SW,235,2.0,2.0,79,0.00,,,0.01,Wunderground v.1.15,2013-10-27 07:20:00,
2013-10-27 03:25:00,44.5,39.0,29.85,WSW,248,1.0,2.0,81,0.00,,,0.01,Wunderground v.1.15,2013-10-27 07:25:00,
2013-10-27 03:30:00,44.2,39.1,29.84,SSW,207,0.0,0.0,82,0.00,,,0.01,Wunderground v.1.15,2013-10-27 07:30:00,
2013-10-27 03:35:00,43.9,39.7,29.84,SSW,202,0.0,6.0,85,0.00,,,0.01,Wunderground v.1.15,2013-10-27 07:35:00,
2013-10-27 03:40:00,43.7,39.2,29.83,SSE,164,0.0,6.0,84,0.00,,,0.01,Wunderground v.1.15,2013-10-27 07:40:00,
2013-10-27 03:45:00,43.6,39.4,29.83,SSE,161,0.0,6.0,85,0.00,,,0.01,Wunderground v.1.15,2013-10-27 07:45:00,
2013-10-27 03:50:00,43.4,39.2,29.83,South,173,0.0,6.0,85,0.00,,,0.01,Wunderground v.1.15,2013-10-27 07:50:00,
2013-10-27 03:55:00,43.3,39.4,29.83,South,173,0.0,6.0,86,0.00,,,0.01,Wunderground v.1.15,2013-10-27 07:55:00,
2013-10-27 04:00:00,43.2,39.3,29.83,SSW,199,0.0,0.0,86,0.00,,,0.01,Wunderground v.1.15,2013-10-27 08:00:00,
2013-10-27 04:06:00,43.1,39.5,29.83,SSW,199,0.0,0.0,87,0.00,,,0.01,Wunderground v.1.15,2013-10-27 08:06:00,
2013-10-27 04:11:00,43.0,39.4,29.82,SSW,199,0.0,0.0,87,0.00,,,0.01,Wunderground v.1.15,2013-10-27 08:11:00,
2013-10-27 04:16:00,42.9,39.6,29.82,SSW,199,0.0,0.0,88,0.00,,,0.02,Wunderground v.1.15,2013-10-27 08:16:00,
2013-10-27 04:22:00,42.7,40.0,29.82,SSW,199,0.0,0.0,90,0.00,,,0.02,Wunderground v.1.15,2013-10-27 08:22:00,
2013-10-27 04:27:00,42.6,39.9,29.82,SSW,199,0.0,0.0,90,0.00,,,0.02,Wunderground v.1.15,2013-10-27 08:27:00,
2013-10-27 04:32:00,42.6,39.9,29.81,SSW,199,0.0,9.0,90,0.00,,,0.02,Wunderground v.1.15,2013-10-27 08:32:00,
2013-10-27 04:37:00,42.5,40.1,29.81,SSW,199,0.0,9.0,91,0.00,,,0.02,Wunderground v.1.15,2013-10-27 08:37:00,
2013-10-27 04:42:00,42.5,40.1,29.82,SSW,199,0.0,9.0,91,0.00,,,0.02,Wunderground v.1.15,2013-10-27 08:42:00,
2013-10-27 04:47:00,42.5,40.1,29.81,SSW,199,0.0,9.0,91,0.00,,,0.02,Wunderground v.1.15,2013-10-27 08:47:00,
2013-10-27 04:52:00,42.5,40.1,29.82,SSW,199,0.0,9.0,91,0.00,,,0.02,Wunderground v.1.15,2013-10-27 08:52:00,
2013-10-27 04:57:00,42.5,40.1,29.81,SSW,199,0.0,9.0,91,0.00,,,0.02,Wunderground v.1.15,2013-10-27 08:57:00,
2013-10-27 05:03:00,42.5,40.1,29.82,SSW,199,0.0,0.0,91,0.00,,,0.02,Wunderground v.1.15,2013-10-27 09:03:00,
2013-10-27 05:08:00,42.5,39.8,29.81,SSW,192,0.0,0.0,90,0.00,,,0.02,Wunderground v.1.15,2013-10-27 09:08:00,
2013-10-27 05:13:00,42.6,39.6,29.82,SSE,161,0.0,0.0,89,0.00,,,0.02,Wunderground v.1.15,2013-10-27 09:13:00,
2013-10-27 05:18:00,42.7,39.7,29.82,South,179,0.0,1.0,89,0.00,,,0.02,Wunderground v.1.15,2013-10-27 09:18:00,
2013-10-27 05:23:00,42.8,39.8,29.82,South,188,0.0,2.0,89,0.00,,,0.02,Wunderground v.1.15,2013-10-27 09:23:00,
2013-10-27 05:28:00,42.9,39.6,29.82,South,191,0.0,2.0,88,0.00,,,0.03,Wunderground v.1.15,2013-10-27 09:28:00,
2013-10-27 05:33:00,43.0,39.4,29.82,SSW,211,0.0,0.0,87,0.00,,,0.03,Wunderground v.1.15,2013-10-27 09:33:00,
2013-10-27 05:38:00,43.1,39.2,29.83,SSW,201,0.0,0.0,86,0.00,,,0.03,Wunderground v.1.15,2013-10-27 09:38:00,
2013-10-27 05:43:00,43.2,39.3,29.83,South,171,0.0,0.0,86,0.00,,,0.03,Wunderground v.1.15,2013-10-27 09:43:00,
2013-10-27 05:48:00,43.2,39.6,29.83,South,171,0.0,0.0,87,0.00,,,0.03,Wunderground v.1.15,2013-10-27 09:48:00,
2013-10-27 05:53:00,43.2,39.9,29.83,South,171,0.0,0.0,88,0.00,,,0.03,Wunderground v.1.15,2013-10-27 09:53:00,
2013-10-27 05:59:00,43.2,39.9,29.83,South,171,0.0,0.0,88,0.00,,,0.03,Wunderground v.1.15,2013-10-27 09:59:00,
2013-10-27 06:05:00,43.1,39.5,29.83,South,170,0.0,1.0,87,0.00,,,0.03,Wunderground v.1.15,2013-10-27 10:05:00,
2013-10-27 06:10:00,43.1,39.8,29.83,South,170,0.0,0.0,88,0.00,,,0.03,Wunderground v.1.15,2013-10-27 10:10:00,
2013-10-27 06:15:00,43.1,39.8,29.83,South,170,0.0,0.0,88,0.00,,,0.03,Wunderground v.1.15,2013-10-27 10:15:00,
2013-10-27 06:21:00,43.0,40.0,29.83,South,170,0.0,0.0,89,0.00,,,0.03,Wunderground v.1.15,2013-10-27 10:21:00,
2013-10-27 06:27:00,43.0,40.0,29.83,South,170,0.0,0.0,89,0.00,,,0.03,Wunderground v.1.15,2013-10-27 10:27:00,
2013-10-27 06:32:00,43.0,40.0,29.83,South,170,0.0,3.0,89,0.00,,,0.03,Wunderground v.1.15,2013-10-27 10:32:00,
2013-10-27 06:38:00,42.9,40.2,29.83,South,170,0.0,3.0,90,0.00,,,0.03,Wunderground v.1.15,2013-10-27 10:38:00,
2013-10-27 06:44:00,42.8,40.1,29.83,South,170,0.0,3.0,90,0.00,,,0.03,Wunderground v.1.15,2013-10-27 10:44:00,
2013-10-27 06:49:00,42.8,40.1,29.83,South,170,0.0,3.0,90,0.00,,,0.03,Wunderground v.1.15,2013-10-27 10:49:00,
2013-10-27 06:54:00,42.8,40.1,29.84,South,170,0.0,3.0,90,0.00,,,0.03,Wunderground v.1.15,2013-10-27 10:54:00,
2013-10-27 07:00:00,42.7,40.0,29.84,South,170,0.0,0.0,90,0.00,,,0.03,Wunderground v.1.15,2013-10-27 11:00:00,
2013-10-27 07:06:00,42.7,40.0,29.84,South,170,0.0,0.0,90,0.00,,,0.03,Wunderground v.1.15,2013-10-27 11:06:00,
2013-10-27 07:11:00,42.7,40.0,29.84,South,170,0.0,0.0,90,0.00,,,0.03,Wunderground v.1.15,2013-10-27 11:11:00,
2013-10-27 07:17:00,42.6,39.9,29.83,SSE,163,0.0,1.0,90,0.00,,,0.03,Wunderground v.1.15,2013-10-27 11:17:00,
2013-10-27 07:22:00,42.6,39.9,29.83,SSE,163,0.0,0.0,90,0.00,,,0.03,Wunderground v.1.15,2013-10-27 11:22:00,
2013-10-27 07:27:00,42.6,39.9,29.84,SSE,163,0.0,0.0,90,0.00,,,0.03,Wunderground v.1.15,2013-10-27 11:27:00,
2013-10-27 07:32:00,42.5,39.8,29.84,SSE,163,0.0,2.0,90,0.00,,,0.03,Wunderground v.1.15,2013-10-27 11:32:00,
2013-10-27 07:38:00,42.4,39.7,29.84,SSE,163,0.0,2.0,90,0.00,,,0.03,Wunderground v.1.15,2013-10-27 11:38:00,
2013-10-27 07:43:00,42.2,39.5,29.85,SSE,163,0.0,2.0,90,0.00,,,0.03,Wunderground v.1.15,2013-10-27 11:43:00,
2013-10-27 07:48:00,42.1,39.4,29.85,SSE,164,0.0,2.0,90,0.00,,,0.03,Wunderground v.1.15,2013-10-27 11:48:00,
2013-10-27 07:53:00,41.9,39.2,29.85,SSE,164,0.0,2.0,90,0.00,,,0.03,Wunderground v.1.15,2013-10-27 11:53:00,
2013-10-27 07:59:00,41.8,39.1,29.86,SW,216,0.0,2.0,90,0.00,,,0.03,Wunderground v.1.15,2013-10-27 11:59:00,
2013-10-27 08:05:00,41.8,39.1,29.86,West,264,0.0,0.0,90,0.00,,,0.03,Wunderground v.1.15,2013-10-27 12:05:00,
2013-10-27 08:10:00,41.8,39.1,29.86,SW,232,0.0,0.0,90,0.00,,,0.03,Wunderground v.1.15,2013-10-27 12:10:00,
2013-10-27 08:15:00,42.0,39.3,29.86,WSW,237,0.0,3.0,90,0.00,,,0.03,Wunderground v.1.15,2013-10-27 12:15:00,
2013-10-27 08:20:00,42.4,39.7,29.86,WSW,239,1.0,1.0,90,0.00,,,0.03,Wunderground v.1.15,2013-10-27 12:20:00,
2013-10-27 08:26:00,43.0,40.0,29.86,WSW,237,1.0,3.0,89,0.00,,,0.03,Wunderground v.1.15,2013-10-27 12:26:00,
2013-10-27 08:32:00,43.8,40.2,29.86,SW,214,1.0,3.0,87,0.00,,,0.03,Wunderground v.1.15,2013-10-27 12:32:00,
2013-10-27 08:37:00,44.5,40.3,29.86,SSW,196,1.0,3.0,85,0.00,,,0.03,Wunderground v.1.15,2013-10-27 12:37:00,
2013-10-27 08:42:00,45.1,40.2,29.87,SW,216,1.0,1.0,83,0.00,,,0.03,Wunderground v.1.15,2013-10-27 12:42:00,
2013-10-27 08:44:00,45.2,40.3,29.86,WSW,244,2.0,3.0,83,0.00,,,0.03,Wunderground v.1.15,2013-10-27 12:44:00,
2013-10-27 08:49:00,45.5,40.3,29.86,WSW,245,1.0,3.0,82,0.00,,,0.03,Wunderground v.1.15,2013-10-27 12:49:00,
2013-10-27 08:55:00,45.8,40.3,29.87,WSW,248,1.0,2.0,81,0.00,,,0.03,Wunderground v.1.15,2013-10-27 12:55:00,
2013-10-27 09:01:00,46.2,40.0,29.86,WSW,258,1.0,1.0,79,0.00,,,0.03,Wunderground v.1.15,2013-10-27 13:01:00,
2013-10-27 09:06:00,46.5,40.3,29.87,WSW,248,1.0,1.0,79,0.00,,,0.03,Wunderground v.1.15,2013-10-27 13:06:00,
2013-10-27 09:11:00,46.8,39.3,29.87,SW,236,2.0,7.0,75,0.00,,,0.03,Wunderground v.1.15,2013-10-27 13:11:00,
2013-10-27 09:17:00,47.0,39.8,29.87,WNW,286,3.0,7.0,76,0.00,,,0.03,Wunderground v.1.15,2013-10-27 13:17:00,
2013-10-27 09:23:00,47.4,39.5,29.87,WSW,254,3.0,5.0,74,0.00,,,0.03,Wunderground v.1.15,2013-10-27 13:23:00,
2013-10-27 09:28:00,47.9,38.9,29.86,WNW,296,3.0,5.0,71,0.00,,,0.03,Wunderground v.1.15,2013-10-27 13:28:00,
2013-10-27 09:34:00,48.5,39.2,29.86,SW,220,3.0,6.0,70,0.00,,,0.03,Wunderground v.1.15,2013-10-27 13:34:00,
2013-10-27 09:39:00,48.8,38.7,29.87,SW,231,3.0,6.0,68,0.00,,,0.03,Wunderground v.1.15,2013-10-27 13:39:00,
2013-10-27 09:44:00,49.0,38.9,29.87,West,275,3.0,7.0,68,0.00,,,0.03,Wunderground v.1.15,2013-10-27 13:44:00,
2013-10-27 09:50:00,49.3,38.8,29.86,WSW,256,3.0,6.0,67,0.00,,,0.03,Wunderground v.1.15,2013-10-27 13:50:00,
2013-10-27 09:55:00,49.5,38.6,29.86,WNW,288,4.0,6.0,66,0.00,,,0.03,Wunderground v.1.15,2013-10-27 13:55:00,
2013-10-27 10:00:00,49.7,38.4,29.86,West,272,4.0,8.0,65,0.00,,,0.03,Wunderground v.1.15,2013-10-27 14:00:00,
2013-10-27 10:06:00,49.8,38.9,29.86,WNW,296,4.0,8.0,66,0.00,,,0.03,Wunderground v.1.15,2013-10-27 14:06:00,
2013-10-27 10:12:00,50.0,38.3,29.87,WSW,256,3.0,7.0,64,0.00,,,0.03,Wunderground v.1.15,2013-10-27 14:12:00,
2013-10-27 10:17:00,50.2,38.5,29.87,WSW,248,3.0,8.0,64,0.00,,,0.03,Wunderground v.1.15,2013-10-27 14:17:00,
2013-10-27 10:23:00,50.5,39.2,29.86,West,259,3.0,3.0,65,0.00,,,0.03,Wunderground v.1.15,2013-10-27 14:23:00,
2013-10-27 10:28:00,50.7,38.6,29.86,WSW,238,3.0,5.0,63,0.00,,,0.03,Wunderground v.1.15,2013-10-27 14:28:00,
2013-10-27 10:34:00,51.0,38.4,29.86,West,267,4.0,9.0,62,0.00,,,0.03,Wunderground v.1.15,2013-10-27 14:34:00,
2013-10-27 10:39:00,51.2,37.4,29.86,SSW,211,5.0,9.0,59,0.00,,,0.03,Wunderground v.1.15,2013-10-27 14:39:00,
2013-10-27 10:44:00,51.3,37.0,29.87,West,264,6.0,9.0,58,0.00,,,0.03,Wunderground v.1.15,2013-10-27 14:44:00,
2013-10-27 10:49:00,51.3,37.4,29.87,West,279,5.0,9.0,59,0.00,,,0.03,Wunderground v.1.15,2013-10-27 14:49:00,
2013-10-27 10:55:00,51.4,37.5,29.87,NW,313,4.0,9.0,59,0.00,,,0.03,Wunderground v.1.15,2013-10-27 14:55:00,
2013-10-27 11:00:00,51.5,36.8,29.87,WSW,243,5.0,5.0,57,0.00,,,0.03,Wunderground v.1.15,2013-10-27 15:00:00,
2013-10-27 11:06:00,52.0,37.7,29.88,WNW,298,5.0,6.0,58,0.00,,,0.03,Wunderground v.1.15,2013-10-27 15:06:00,
2013-10-27 11:11:00,52.3,37.5,29.87,West,259,4.0,4.0,57,0.00,,,0.03,Wunderground v.1.15,2013-10-27 15:11:00,
2013-10-27 11:17:00,52.5,36.8,29.87,NW,323,4.0,10.0,55,0.00,,,0.03,Wunderground v.1.15,2013-10-27 15:17:00,
2013-10-27 11:23:00,52.5,37.2,29.87,West,279,4.0,5.0,56,0.00,,,0.03,Wunderground v.1.15,2013-10-27 15:23:00,
2013-10-27 11:28:00,52.6,36.9,29.87,NW,325,4.0,5.0,55,0.00,,,0.03,Wunderground v.1.15,2013-10-27 15:28:00,
2013-10-27 11:33:00,52.6,35.5,29.87,SW,217,5.0,10.0,52,0.00,,,0.03,Wunderground v.1.15,2013-10-27 15:33:00,
2013-10-27 11:39:00,52.7,36.5,29.87,NW,305,5.0,10.0,54,0.00,,,0.03,Wunderground v.1.15,2013-10-27 15:39:00,
2013-10-27 11:45:00,52.8,36.6,29.87,West,260,3.0,10.0,54,0.00,,,0.03,Wunderground v.1.15,2013-10-27 15:45:00,
2013-10-27 11:50:00,53.3,37.1,29.87,WNW,286,3.0,3.0,54,0.00,,,0.03,Wunderground v.1.15,2013-10-27 15:50:00,
2013-10-27 11:55:00,53.8,36.6,29.87,WSW,254,4.0,10.0,52,0.00,,,0.03,Wunderground v.1.15,2013-10-27 15:55:00,
2013-10-27 12:00:00,54.2,37.4,29.87,West,265,4.0,4.0,53,0.00,,,0.03,Wunderground v.1.15,2013-10-27 16:00:00,
2013-10-27 12:06:00,54.5,36.7,29.86,WSW,238,3.0,8.0,51,0.00,,,0.03,Wunderground v.1.15,2013-10-27 16:06:00,
2013-10-27 12:12:00,54.4,36.6,29.87,West,280,5.0,7.0,51,0.00,,,0.03,Wunderground v.1.15,2013-10-27 16:12:00,
2013-10-27 12:18:00,54.0,35.8,29.86,WSW,239,5.0,7.0,50,0.00,,,0.03,Wunderground v.1.15,2013-10-27 16:18:00,
2013-10-27 12:23:00,53.8,35.6,29.86,WSW,257,5.0,8.0,50,0.00,,,0.03,Wunderground v.1.15,2013-10-27 16:23:00,
2013-10-27 12:29:00,53.9,35.7,29.86,North,360,5.0,9.0,50,0.00,,,0.03,Wunderground v.1.15,2013-10-27 16:29:00,
2013-10-27 12:35:00,53.6,35.4,29.86,West,270,6.0,17.0,50,0.00,,,0.03,Wunderground v.1.15,2013-10-27 16:35:00,
2013-10-27 12:40:00,53.4,35.2,29.87,SW,231,6.0,6.0,50,0.00,,,0.03,Wunderground v.1.15,2013-10-27 16:40:00,
2013-10-27 12:45:00,53.2,35.5,29.86,NNW,333,3.0,17.0,51,0.00,,,0.03,Wunderground v.1.15,2013-10-27 16:45:00,
2013-10-27 12:51:00,53.3,35.6,29.86,North,360,2.0,3.0,51,0.00,,,0.03,Wunderground v.1.15,2013-10-27 16:51:00,
2013-10-27 12:57:00,53.8,35.6,29.86,NNW,345,3.0,17.0,50,0.00,,,0.03,Wunderground v.1.15,2013-10-27 16:57:00,
2013-10-27 13:02:00,54.3,35.5,29.86,WSW,241,5.0,6.0,49,0.00,,,0.03,Wunderground v.1.15,2013-10-27 17:02:00,
2013-10-27 13:08:00,54.8,35.5,29.86,SW,229,5.0,10.0,48,0.00,,,0.03,Wunderground v.1.15,2013-10-27 17:08:00,
2013-10-27 13:14:00,54.4,35.6,29.87,West,259,5.0,6.0,49,0.00,,,0.03,Wunderground v.1.15,2013-10-27 17:14:00,
2013-10-27 13:20:00,54.4,36.1,29.86,South,175,3.0,3.0,50,0.00,,,0.03,Wunderground v.1.15,2013-10-27 17:20:00,
2013-10-27 13:25:00,55.1,36.3,29.86,WSW,250,2.0,6.0,49,0.00,,,0.03,Wunderground v.1.15,2013-10-27 17:25:00,
2013-10-27 13:30:00,55.3,35.4,29.87,SW,222,4.0,6.0,47,0.00,,,0.03,Wunderground v.1.15,2013-10-27 17:30:00,
2013-10-27 13:36:00,54.2,34.9,29.87,West,274,5.0,15.0,48,0.00,,,0.03,Wunderground v.1.15,2013-10-27 17:36:00,
2013-10-27 13:42:00,53.7,36.0,29.87,SW,214,3.0,15.0,51,0.00,,,0.03,Wunderground v.1.15,2013-10-27 17:42:00,
2013-10-27 13:48:00,53.2,35.0,29.87,NNW,334,4.0,15.0,50,0.00,,,0.03,Wunderground v.1.15,2013-10-27 17:48:00,
2013-10-27 13:53:00,53.0,35.3,29.87,WSW,252,5.0,15.0,51,0.00,,,0.03,Wunderground v.1.15,2013-10-27 17:53:00,
2013-10-27 13:59:00,52.7,35.1,29.86,WNW,300,4.0,15.0,51,0.00,,,0.03,Wunderground v.1.15,2013-10-27 17:59:00,
2013-10-27 14:04:00,52.7,35.1,29.86,West,273,3.0,6.0,51,0.00,,,0.03,Wunderground v.1.15,2013-10-27 18:04:00,
2013-10-27 14:10:00,52.9,34.8,29.86,SW,232,3.0,4.0,50,0.00,,,0.03,Wunderground v.1.15,2013-10-27 18:10:00,
2013-10-27 14:15:00,53.5,34.3,29.86,West,269,4.0,9.0,48,0.00,,,0.03,Wunderground v.1.15,2013-10-27 18:15:00,
2013-10-27 14:20:00,54.4,34.0,29.86,WSW,255,4.0,12.0,46,0.00,,,0.03,Wunderground v.1.15,2013-10-27 18:20:00,
2013-10-27 14:26:00,54.7,33.8,29.86,WSW,242,5.0,12.0,45,0.00,,,0.03,Wunderground v.1.15,2013-10-27 18:26:00,
2013-10-27 14:32:00,54.7,34.3,29.86,SW,228,4.0,15.0,46,0.00,,,0.03,Wunderground v.1.15,2013-10-27 18:32:00,
2013-10-27 14:37:00,54.6,33.7,29.86,WSW,237,5.0,15.0,45,0.00,,,0.03,Wunderground v.1.15,2013-10-27 18:37:00,
2013-10-27 14:43:00,54.8,33.3,29.86,West,267,4.0,15.0,44,0.00,,,0.03,Wunderground v.1.15,2013-10-27 18:43:00,
2013-10-27 14:49:00,54.8,33.8,29.86,West,277,3.0,15.0,45,0.00,,,0.03,Wunderground v.1.15,2013-10-27 18:49:00,
2013-10-27 14:55:00,54.6,33.7,29.86,NNW,345,2.0,15.0,45,0.00,,,0.03,Wunderground v.1.15,2013-10-27 18:55:00,
2013-10-27 15:00:00,54.3,32.8,29.87,West,270,4.0,7.0,44,0.00,,,0.03,Wunderground v.1.15,2013-10-27 19:00:00,
2013-10-27 15:06:00,54.0,32.6,29.87,West,263,5.0,7.0,44,0.00,,,0.03,Wunderground v.1.15,2013-10-27 19:06:00,
2013-10-27 15:11:00,53.8,32.9,29.87,WSW,242,4.0,4.0,45,0.00,,,0.03,Wunderground v.1.15,2013-10-27 19:11:00,
2013-10-27 15:16:00,53.6,33.3,29.88,West,263,4.0,6.0,46,0.00,,,0.03,Wunderground v.1.15,2013-10-27 19:16:00,
2013-10-27 15:22:00,53.4,33.1,29.87,WNW,291,3.0,3.0,46,0.00,,,0.03,Wunderground v.1.15,2013-10-27 19:22:00,
2013-10-27 15:28:00,53.3,33.0,29.88,West,264,2.0,3.0,46,0.00,,,0.03,Wunderground v.1.15,2013-10-27 19:28:00,
2013-10-27 15:33:00,53.2,32.4,29.88,WNW,296,3.0,16.0,45,0.00,,,0.03,Wunderground v.1.15,2013-10-27 19:33:00,
2013-10-27 15:39:00,53.1,32.8,29.88,NNW,346,4.0,16.0,46,0.00,,,0.03,Wunderground v.1.15,2013-10-27 19:39:00,
2013-10-27 15:45:00,53.1,32.3,29.88,NW,305,4.0,16.0,45,0.00,,,0.03,Wunderground v.1.15,2013-10-27 19:45:00,
2013-10-27 15:51:00,53.3,32.5,29.87,SW,235,4.0,16.0,45,0.00,,,0.03,Wunderground v.1.15,2013-10-27 19:51:00,
2013-10-27 15:56:00,53.6,31.0,29.87,SW,228,5.0,16.0,42,0.00,,,0.03,Wunderground v.1.15,2013-10-27 19:56:00,
2013-10-27 16:02:00,53.6,31.0,29.88,WSW,243,5.0,8.0,42,0.00,,,0.03,Wunderground v.1.15,2013-10-27 20:02:00,
2013-10-27 16:07:00,53.4,30.9,29.88,WNW,293,5.0,10.0,42,0.00,,,0.03,Wunderground v.1.15,2013-10-27 20:07:00,
2013-10-27 16:12:00,53.4,30.3,29.88,West,262,6.0,13.0,41,0.00,,,0.03,Wunderground v.1.15,2013-10-27 20:12:00,
2013-10-27 16:18:00,53.4,29.7,29.88,WNW,286,6.0,13.0,40,0.00,,,0.03,Wunderground v.1.15,2013-10-27 20:18:00,
2013-10-27 16:24:00,53.2,29.5,29.88,East,84,6.0,6.0,40,0.00,,,0.03,Wunderground v.1.15,2013-10-27 20:24:00,
2013-10-27 16:29:00,53.1,30.0,29.88,WSW,250,4.0,7.0,41,0.00,,,0.03,Wunderground v.1.15,2013-10-27 20:29:00,
2013-10-27 16:34:00,53.0,29.9,29.89,WSW,250,4.0,15.0,41,0.00,,,0.03,Wunderground v.1.15,2013-10-27 20:34:00,
2013-10-27 16:39:00,52.8,30.3,29.89,West,279,4.0,15.0,42,0.00,,,0.03,Wunderground v.1.15,2013-10-27 20:39:00,
2013-10-27 16:45:00,52.7,30.2,29.89,West,272,4.0,15.0,42,0.00,,,0.03,Wunderground v.1.15,2013-10-27 20:45:00,
2013-10-27 16:50:00,52.7,30.2,29.89,West,263,4.0,4.0,42,0.00,,,0.03,Wunderground v.1.15,2013-10-27 20:50:00,
2013-10-27 16:56:00,52.7,30.2,29.89,West,261,3.0,15.0,42,0.00,,,0.03,Wunderground v.1.15,2013-10-27 20:56:00,
2013-10-27 17:01:00,52.7,30.2,29.90,SW,229,3.0,3.0,42,0.00,,,0.03,Wunderground v.1.15,2013-10-27 21:01:00,
2013-10-27 17:07:00,52.5,30.6,29.90,West,269,2.0,4.0,43,0.00,,,0.03,Wunderground v.1.15,2013-10-27 21:07:00,
2013-10-27 17:13:00,52.4,30.5,29.90,WNW,302,3.0,7.0,43,0.00,,,0.03,Wunderground v.1.15,2013-10-27 21:13:00,
2013-10-27 17:19:00,52.3,30.4,29.91,West,281,3.0,7.0,43,0.00,,,0.03,Wunderground v.1.15,2013-10-27 21:19:00,
2013-10-27 17:24:00,52.0,30.2,29.91,West,269,3.0,5.0,43,0.00,,,0.03,Wunderground v.1.15,2013-10-27 21:24:00,
2013-10-27 17:29:00,51.8,30.0,29.91,NW,319,3.0,5.0,43,0.00,,,0.03,Wunderground v.1.15,2013-10-27 21:29:00,
2013-10-27 17:35:00,51.5,30.3,29.92,West,276,3.0,18.0,44,0.00,,,0.03,Wunderground v.1.15,2013-10-27 21:35:00,
2013-10-27 17:40:00,51.4,30.2,29.92,West,280,4.0,18.0,44,0.00,,,0.03,Wunderground v.1.15,2013-10-27 21:40:00,
2013-10-27 17:46:00,51.2,30.0,29.92,SW,234,3.0,18.0,44,0.00,,,0.03,Wunderground v.1.15,2013-10-27 21:46:00,
2013-10-27 17:52:00,51.0,29.8,29.92,West,281,2.0,18.0,44,0.00,,,0.03,Wunderground v.1.15,2013-10-27 21:52:00,
2013-10-27 17:57:00,50.8,29.6,29.93,West,271,2.0,18.0,44,0.00,,,0.03,Wunderground v.1.15,2013-10-27 21:57:00,
2013-10-27 18:03:00,50.8,29.6,29.93,West,277,4.0,7.0,44,0.00,,,0.03,Wunderground v.1.15,2013-10-27 22:03:00,
2013-10-27 18:08:00,50.7,29.6,29.93,WSW,250,4.0,7.0,44,0.00,,,0.03,Wunderground v.1.15,2013-10-27 22:08:00,
2013-10-27 18:14:00,50.6,30.0,29.94,SW,223,4.0,11.0,45,0.00,,,0.03,Wunderground v.1.15,2013-10-27 22:14:00,
2013-10-27 18:19:00,50.5,29.9,29.94,SW,226,4.0,11.0,45,0.00,,,0.03,Wunderground v.1.15,2013-10-27 22:19:00,
2013-10-27 18:24:00,50.4,29.8,29.94,West,273,2.0,3.0,45,0.00,,,0.03,Wunderground v.1.15,2013-10-27 22:24:00,
2013-10-27 18:29:00,50.2,29.7,29.95,West,277,2.0,3.0,45,0.00,,,0.03,Wunderground v.1.15,2013-10-27 22:29:00,
2013-10-27 18:34:00,50.1,30.1,29.95,WSW,242,1.0,13.0,46,0.00,,,0.03,Wunderground v.1.15,2013-10-27 22:34:00,
2013-10-27 18:40:00,49.9,29.9,29.96,West,261,1.0,13.0,46,0.00,,,0.03,Wunderground v.1.15,2013-10-27 22:40:00,
2013-10-27 18:46:00,49.5,30.1,29.96,West,264,1.0,13.0,47,0.00,,,0.03,Wunderground v.1.15,2013-10-27 22:46:00,
2013-10-27 18:51:00,49.2,30.3,29.96,West,266,1.0,13.0,48,0.00,,,0.03,Wunderground v.1.15,2013-10-27 22:51:00,
2013-10-27 18:57:00,48.8,30.5,29.96,SW,229,2.0,13.0,49,0.00,,,0.03,Wunderground v.1.15,2013-10-27 22:57:00,
2013-10-27 19:03:00,48.5,30.2,29.97,West,259,2.0,5.0,49,0.00,,,0.03,Wunderground v.1.15,2013-10-27 23:03:00,
2013-10-27 19:10:00,48.3,30.5,29.97,SW,228,2.0,2.0,50,0.00,,,0.03,Wunderground v.1.15,2013-10-27 23:10:00,
2013-10-27 19:15:00,48.0,30.2,29.97,WSW,244,2.0,2.0,50,0.00,,,0.03,Wunderground v.1.15,2013-10-27 23:15:00,
2013-10-27 19:20:00,47.9,30.1,29.97,WNW,282,2.0,2.0,50,0.00,,,0.03,Wunderground v.1.15,2013-10-27 23:20:00,
2013-10-27 19:26:00,47.7,30.4,29.98,WSW,250,1.0,5.0,51,0.00,,,0.03,Wunderground v.1.15,2013-10-27 23:26:00,
2013-10-27 19:31:00,47.5,30.3,29.98,West,275,1.0,4.0,51,0.00,,,0.03,Wunderground v.1.15,2013-10-27 23:31:00,
2013-10-27 19:37:00,47.4,30.6,29.98,WSW,254,1.0,15.0,52,0.00,,,0.03,Wunderground v.1.15,2013-10-27 23:37:00,
2013-10-27 19:43:00,47.2,30.5,29.99,West,261,1.0,15.0,52,0.00,,,0.03,Wunderground v.1.15,2013-10-27 23:43:00,
2013-10-27 19:48:00,47.2,30.9,29.99,SW,233,2.0,15.0,53,0.00,,,0.03,Wunderground v.1.15,2013-10-27 23:48:00,
2013-10-27 19:53:00,47.1,30.4,29.99,West,263,2.0,15.0,52,0.00,,,0.03,Wunderground v.1.15,2013-10-27 23:53:00,
2013-10-27 19:58:00,47.1,30.8,29.99,WNW,296,2.0,15.0,53,0.00,,,0.03,Wunderground v.1.15,2013-10-27 23:58:00,
2013-10-27 20:04:00,47.0,30.7,29.99,WNW,282,2.0,3.0,53,0.00,,,0.03,Wunderground v.1.15,2013-10-28 00:04:00,
2013-10-27 20:10:00,47.0,30.7,29.99,WNW,284,3.0,4.0,53,0.00,,,0.03,Wunderground v.1.15,2013-10-28 00:10:00,
2013-10-27 20:15:00,47.0,30.7,29.99,West,269,3.0,4.0,53,0.00,,,0.03,Wunderground v.1.15,2013-10-28 00:15:00,
2013-10-27 20:21:00,47.0,30.7,30.00,West,259,2.0,2.0,53,0.00,,,0.03,Wunderground v.1.15,2013-10-28 00:21:00,
2013-10-27 20:27:00,46.9,31.1,30.00,WSW,250,1.0,2.0,54,0.00,,,0.03,Wunderground v.1.15,2013-10-28 00:27:00,
2013-10-27 20:32:00,46.7,30.9,30.00,West,273,2.0,8.0,54,0.00,,,0.03,Wunderground v.1.15,2013-10-28 00:32:00,
2013-10-27 20:38:00,46.6,31.3,30.00,West,277,2.0,8.0,55,0.00,,,0.03,Wunderground v.1.15,2013-10-28 00:38:00,
2013-10-27 20:43:00,46.5,31.2,30.00,NW,311,2.0,8.0,55,0.00,,,0.03,Wunderground v.1.15,2013-10-28 00:43:00,
2013-10-27 20:49:00,46.4,31.1,30.01,WSW,246,2.0,8.0,55,0.00,,,0.03,Wunderground v.1.15,2013-10-28 00:49:00,
2013-10-27 20:54:00,46.3,31.4,30.00,NW,323,2.0,8.0,56,0.00,,,0.03,Wunderground v.1.15,2013-10-28 00:54:00,
2013-10-27 21:01:00,46.1,31.3,30.01,West,279,1.0,1.0,56,0.00,,,0.03,Wunderground v.1.15,2013-10-28 01:01:00,
2013-10-27 21:06:00,45.9,31.5,30.01,West,266,1.0,1.0,57,0.00,,,0.03,Wunderground v.1.15,2013-10-28 01:06:00,
2013-10-27 21:12:00,45.5,31.1,30.02,WSW,248,0.0,1.0,57,0.00,,,0.03,Wunderground v.1.15,2013-10-28 01:12:00,
2013-10-27 21:18:00,45.0,31.1,30.02,West,263,0.0,1.0,58,0.00,,,0.03,Wunderground v.1.15,2013-10-28 01:18:00,
2013-10-27 21:23:00,44.6,31.1,30.02,WSW,240,0.0,1.0,59,0.00,,,0.03,Wunderground v.1.15,2013-10-28 01:23:00,
2013-10-27 21:29:00,44.2,31.6,30.02,West,271,0.0,1.0,61,0.00,,,0.03,Wunderground v.1.15,2013-10-28 01:29:00,
2013-10-27 21:34:00,43.8,31.2,30.02,West,261,0.0,9.0,61,0.00,,,0.03,Wunderground v.1.15,2013-10-28 01:34:00,
2013-10-27 21:40:00,43.6,31.4,30.02,WSW,257,1.0,9.0,62,0.00,,,0.03,Wunderground v.1.15,2013-10-28 01:40:00,
2013-10-27 21:46:00,43.5,31.3,30.02,West,266,1.0,9.0,62,0.00,,,0.03,Wunderground v.1.15,2013-10-28 01:46:00,
2013-10-27 21:52:00,43.4,31.2,30.03,WNW,290,1.0,9.0,62,0.00,,,0.03,Wunderground v.1.15,2013-10-28 01:52:00,
2013-10-27 21:57:00,43.5,31.3,30.03,West,274,1.0,9.0,62,0.00,,,0.03,Wunderground v.1.15,2013-10-28 01:57:00,
2013-10-27 22:03:00,43.5,31.3,30.03,West,270,0.0,2.0,62,0.00,,,0.03,Wunderground v.1.15,2013-10-28 02:03:00,
2013-10-27 22:08:00,43.4,31.6,30.04,West,276,0.0,2.0,63,0.00,,,0.03,Wunderground v.1.15,2013-10-28 02:08:00,
2013-10-27 22:14:00,43.2,31.4,30.04,West,261,0.0,0.0,63,0.00,,,0.03,Wunderground v.1.15,2013-10-28 02:14:00,
2013-10-27 22:20:00,43.0,31.3,30.04,WSW,238,0.0,0.0,63,0.00,,,0.03,Wunderground v.1.15,2013-10-28 02:20:00,
2013-10-27 22:25:00,42.8,31.1,30.04,WSW,250,1.0,2.0,63,0.00,,,0.03,Wunderground v.1.15,2013-10-28 02:25:00,
2013-10-27 22:31:00,42.7,31.4,30.05,West,268,1.0,4.0,64,0.00,,,0.03,Wunderground v.1.15,2013-10-28 02:31:00,
2013-10-27 22:36:00,42.5,31.2,30.05,NW,306,1.0,4.0,64,0.00,,,0.03,Wunderground v.1.15,2013-10-28 02:36:00,
2013-10-27 22:42:00,42.4,31.1,30.05,West,259,1.0,4.0,64,0.00,,,0.03,Wunderground v.1.15,2013-10-28 02:42:00,
2013-10-27 22:47:00,42.3,31.4,30.05,West,276,1.0,4.0,65,0.00,,,0.03,Wunderground v.1.15,2013-10-28 02:47:00,
2013-10-27 22:53:00,42.0,31.1,30.05,West,269,1.0,4.0,65,0.00,,,0.03,Wunderground v.1.15,2013-10-28 02:53:00,
2013-10-27 22:58:00,41.9,31.4,30.06,WSW,242,1.0,4.0,66,0.00,,,0.03,Wunderground v.1.15,2013-10-28 02:58:00,
2013-10-27 23:04:00,41.6,31.1,30.06,WSW,242,0.0,1.0,66,0.00,,,0.03,Wunderground v.1.15,2013-10-28 03:04:00,
2013-10-27 23:10:00,41.3,31.2,30.06,West,265,0.0,0.0,67,0.00,,,0.03,Wunderground v.1.15,2013-10-28 03:10:00,
2013-10-27 23:15:00,40.9,30.8,30.06,West,265,0.0,0.0,67,0.00,,,0.03,Wunderground v.1.15,2013-10-28 03:15:00,
2013-10-27 23:20:00,40.6,30.9,30.06,West,265,0.0,0.0,68,0.00,,,0.03,Wunderground v.1.15,2013-10-28 03:20:00,
2013-10-27 23:25:00,40.1,30.7,30.06,West,265,0.0,0.0,69,0.00,,,0.03,Wunderground v.1.15,2013-10-28 03:25:00,
2013-10-27 23:30:00,39.8,30.5,30.06,West,265,0.0,0.0,69,0.00,,,0.03,Wunderground v.1.15,2013-10-28 03:30:00,
2013-10-27 23:35:00,39.5,30.5,30.06,West,265,0.0,4.0,70,0.00,,,0.03,Wunderground v.1.15,2013-10-28 03:35:00,
2013-10-27 23:41:00,39.1,30.5,30.06,West,265,0.0,4.0,71,0.00,,,0.03,Wunderground v.1.15,2013-10-28 03:41:00,
2013-10-27 23:46:00,38.8,30.5,30.06,West,265,0.0,4.0,72,0.00,,,0.03,Wunderground v.1.15,2013-10-28 03:46:00,
2013-10-27 23:51:00,38.5,30.6,30.06,West,265,0.0,4.0,73,0.00,,,0.03,Wunderground v.1.15,2013-10-28 03:51:00,
2013-10-27 23:56:00,38.1,30.2,30.06,West,265,0.0,4.0,73,0.00,,,0.03,Wunderground v.1.15,2013-10-28 03:56:00,